createdAt,value
2023-06-04T00:02:15.079Z,14.25
2023-06-04T00:04:41.649Z,14.24
2023-06-04T00:07:08.120Z,14.24
2023-06-04T00:09:34.661Z,14.22
2023-06-04T00:12:01.264Z,14.16
2023-06-04T00:14:27.823Z,14.12
2023-06-04T00:16:54.359Z,14.08
2023-06-04T00:19:20.795Z,14.04
2023-06-04T00:21:47.357Z,14.01
2023-06-04T00:24:14.207Z,13.99
2023-06-04T00:26:40.982Z,13.96
2023-06-04T00:29:07.466Z,13.90
2023-06-04T00:31:33.968Z,13.86
2023-06-04T00:34:00.438Z,13.83
2023-06-04T00:36:26.872Z,13.80
2023-06-04T00:38:53.357Z,13.75
2023-06-04T00:41:19.791Z,13.72
2023-06-04T00:43:46.971Z,13.73
2023-06-04T00:46:19.281Z,13.72
2023-06-04T00:48:45.980Z,13.73
2023-06-04T00:51:13.365Z,13.71
2023-06-04T00:53:40.503Z,13.70
2023-06-04T00:56:07.490Z,13.66
2023-06-04T00:58:40.961Z,13.61
2023-06-04T01:01:16.119Z,13.58
2023-06-04T01:03:47.313Z,13.57
2023-06-04T01:06:22.393Z,13.50
2023-06-04T01:08:55.692Z,13.48
2023-06-04T01:11:40.120Z,13.48
2023-06-04T01:14:11.091Z,13.46
2023-06-04T01:17:02.478Z,13.41
2023-06-04T01:19:38.779Z,13.38
2023-06-04T01:22:17.498Z,13.38
2023-06-04T01:24:56.651Z,13.34
2023-06-04T01:27:24.075Z,13.28
2023-06-04T01:29:52.440Z,13.24
2023-06-04T01:32:19.080Z,13.22
2023-06-04T01:34:46.828Z,13.21
2023-06-04T01:37:13.635Z,13.16
2023-06-04T01:39:40.115Z,13.16
2023-06-04T01:42:06.948Z,13.11
2023-06-04T01:44:33.342Z,13.08
2023-06-04T01:46:59.805Z,13.07
2023-06-04T01:49:26.251Z,12.99
2023-06-04T01:51:52.707Z,12.95
2023-06-04T01:54:19.126Z,12.90
2023-06-04T01:56:46.111Z,12.85
2023-06-04T01:59:13.044Z,12.86
2023-06-04T02:01:39.655Z,12.85
2023-06-04T02:04:06.171Z,12.84
2023-06-04T02:06:32.638Z,12.83
2023-06-04T02:08:59.072Z,12.78
2023-06-04T02:11:26.113Z,12.75
2023-06-04T02:13:52.579Z,12.72
2023-06-04T02:16:19.038Z,12.67
2023-06-04T02:18:45.598Z,12.63
2023-06-04T02:21:13.386Z,12.62
2023-06-04T02:23:39.897Z,12.55
2023-06-04T02:26:07.388Z,12.49
2023-06-04T02:28:33.789Z,12.44
2023-06-04T02:31:00.467Z,12.42
2023-06-04T02:33:27.119Z,12.38
2023-06-04T02:35:53.866Z,12.37
2023-06-04T02:38:20.461Z,12.34
2023-06-04T02:40:46.917Z,12.35
2023-06-04T02:43:13.347Z,12.31
2023-06-04T02:45:39.808Z,12.29
2023-06-04T02:48:06.362Z,12.27
2023-06-04T02:50:32.845Z,12.24
2023-06-04T02:52:59.306Z,12.19
2023-06-04T02:55:26.147Z,12.20
2023-06-04T02:57:53.082Z,12.15
2023-06-04T03:00:19.843Z,12.08
2023-06-04T03:02:47.862Z,12.08
2023-06-04T03:05:16.213Z,12.06
2023-06-04T03:07:44.329Z,12.05
2023-06-04T03:10:12.325Z,12.05
2023-06-04T03:12:38.751Z,12.03
2023-06-04T03:15:05.916Z,12.02
2023-06-04T03:17:33.733Z,12.03
2023-06-04T03:20:00.351Z,11.97
2023-06-04T03:22:27.148Z,11.96
2023-06-04T03:24:53.613Z,11.98
2023-06-04T03:27:20.876Z,11.95
2023-06-04T03:29:47.408Z,11.93
2023-06-04T03:32:14.020Z,11.92
2023-06-04T03:34:40.501Z,11.91
2023-06-04T03:37:07.034Z,11.91
2023-06-04T03:39:33.433Z,11.88
2023-06-04T03:41:59.918Z,11.84
2023-06-04T03:44:26.519Z,11.82
2023-06-04T03:46:53.006Z,11.77
2023-06-04T03:49:20.564Z,11.77
2023-06-04T03:51:47.188Z,11.80
2023-06-04T03:54:17.639Z,11.81
2023-06-04T03:56:46.157Z,11.80
2023-06-04T03:59:12.601Z,11.84
2023-06-04T04:01:39.674Z,11.83
2023-06-04T04:04:06.626Z,11.81
2023-06-04T04:06:33.246Z,11.82
2023-06-04T04:08:59.793Z,11.80
2023-06-04T04:11:26.879Z,11.84
2023-06-04T04:13:53.435Z,11.87
2023-06-04T04:16:19.911Z,11.86
2023-06-04T04:18:46.785Z,11.86
2023-06-04T04:21:13.332Z,11.89
2023-06-04T04:23:43.287Z,11.90
2023-06-04T04:26:11.185Z,11.92
2023-06-04T04:28:38.224Z,11.93
2023-06-04T04:31:05.896Z,11.95
2023-06-04T04:33:37.978Z,11.96
2023-06-04T04:36:04.574Z,12.00
2023-06-04T04:38:32.412Z,12.04
2023-06-04T04:40:58.973Z,12.07
2023-06-04T04:43:36.330Z,12.08
2023-06-04T04:46:02.838Z,12.10
2023-06-04T04:48:29.373Z,12.15
2023-06-04T04:50:55.862Z,12.18
2023-06-04T04:53:22.868Z,12.21
2023-06-04T04:55:49.320Z,12.23
2023-06-04T04:58:16.183Z,12.26
2023-06-04T05:00:42.853Z,12.25
2023-06-04T05:03:09.580Z,12.26
2023-06-04T05:05:36.096Z,12.30
2023-06-04T05:08:02.548Z,12.31
2023-06-04T05:10:28.951Z,12.34
2023-06-04T05:12:58.055Z,12.39
2023-06-04T05:15:25.619Z,12.38
2023-06-04T05:17:53.742Z,12.44
2023-06-04T05:20:22.133Z,12.48
2023-06-04T05:22:48.619Z,12.51
2023-06-04T05:25:17.671Z,12.56
2023-06-04T05:27:44.173Z,12.62
2023-06-04T05:30:11.207Z,12.65
2023-06-04T05:32:41.699Z,12.69
2023-06-04T05:35:09.184Z,12.75
2023-06-04T05:37:36.446Z,12.81
2023-06-04T05:40:03.902Z,12.88
2023-06-04T05:42:30.337Z,12.92
2023-06-04T05:44:56.861Z,12.97
2023-06-04T05:47:23.538Z,13.03
2023-06-04T05:49:50.060Z,13.08
2023-06-04T05:52:16.571Z,13.12
2023-06-04T05:54:42.956Z,13.16
2023-06-04T05:57:09.363Z,13.21
2023-06-04T05:59:35.957Z,13.27
2023-06-04T06:02:03.619Z,13.35
2023-06-04T06:04:30.117Z,13.41
2023-06-04T06:06:57.157Z,13.44
2023-06-04T06:09:23.658Z,13.50
2023-06-04T06:11:50.107Z,13.54
2023-06-04T06:14:16.790Z,13.61
2023-06-04T06:16:43.241Z,13.65
2023-06-04T06:19:09.764Z,13.69
2023-06-04T06:21:37.203Z,13.74
2023-06-04T06:24:03.906Z,13.77
2023-06-04T06:26:31.095Z,13.81
2023-06-04T06:28:57.642Z,13.88
2023-06-04T06:31:24.319Z,13.93
2023-06-04T06:33:51.318Z,13.98
2023-06-04T06:36:19.930Z,13.99
2023-06-04T06:38:47.235Z,14.03
2023-06-04T06:41:14.188Z,14.10
2023-06-04T06:43:40.846Z,14.10
2023-06-04T06:46:07.846Z,14.12
2023-06-04T06:48:34.394Z,14.12
2023-06-04T06:51:00.972Z,14.17
2023-06-04T06:53:27.453Z,14.24
2023-06-04T06:55:53.909Z,14.28
2023-06-04T06:58:20.461Z,14.34
2023-06-04T07:00:46.888Z,14.41
2023-06-04T07:03:13.709Z,14.46
2023-06-04T07:05:40.301Z,14.51
2023-06-04T07:08:06.742Z,14.58
2023-06-04T07:10:33.186Z,14.63
2023-06-04T07:13:00.033Z,14.69
2023-06-04T07:15:26.492Z,14.74
2023-06-04T07:17:53.048Z,14.80
2023-06-04T07:20:19.670Z,14.84
2023-06-04T07:22:46.422Z,14.92
2023-06-04T07:25:12.824Z,14.98
2023-06-04T07:27:39.395Z,15.07
2023-06-04T07:30:07.683Z,15.13
2023-06-04T07:32:34.247Z,15.20
2023-06-04T07:35:00.706Z,15.28
2023-06-04T07:37:27.316Z,15.34
2023-06-04T07:39:53.753Z,15.43
2023-06-04T07:42:20.254Z,15.47
2023-06-04T07:44:46.648Z,15.53
2023-06-04T07:47:13.076Z,15.58
2023-06-04T07:49:44.637Z,15.65
2023-06-04T07:52:17.480Z,15.73
2023-06-04T07:54:43.897Z,15.77
2023-06-04T07:57:11.292Z,15.82
2023-06-04T07:59:37.775Z,15.87
2023-06-04T08:02:04.364Z,15.93
2023-06-04T08:04:30.950Z,15.99
2023-06-04T08:06:57.467Z,16.06
2023-06-04T08:09:24.126Z,16.12
2023-06-04T08:11:50.689Z,16.16
2023-06-04T08:14:17.109Z,16.25
2023-06-04T08:16:43.751Z,16.29
2023-06-04T08:19:10.691Z,16.35
2023-06-04T08:21:37.135Z,16.41
2023-06-04T08:24:04.395Z,16.47
2023-06-04T08:26:31.810Z,16.54
2023-06-04T08:28:58.471Z,16.61
2023-06-04T08:31:24.983Z,16.65
2023-06-04T08:33:51.489Z,16.71
2023-06-04T08:36:17.987Z,16.76
2023-06-04T08:38:47.205Z,16.83
2023-06-04T08:41:21.325Z,16.90
2023-06-04T08:43:50.223Z,16.94
2023-06-04T08:46:18.728Z,16.99
2023-06-04T08:48:45.832Z,17.04
2023-06-04T08:51:12.503Z,17.12
2023-06-04T08:53:39.363Z,17.18
2023-06-04T08:56:06.144Z,17.20
2023-06-04T08:58:36.649Z,17.25
2023-06-04T09:01:04.014Z,17.30
2023-06-04T09:03:33.590Z,17.36
2023-06-04T09:06:01.131Z,17.43
2023-06-04T09:08:32.497Z,17.45
2023-06-04T09:10:59.014Z,17.48
2023-06-04T09:13:29.444Z,17.53
2023-06-04T09:16:07.005Z,17.59
2023-06-04T09:18:34.008Z,17.64
2023-06-04T09:21:08.856Z,17.73
2023-06-04T09:23:45.698Z,17.74
2023-06-04T09:26:13.444Z,17.77
2023-06-04T09:28:47.121Z,17.83
2023-06-04T09:31:17.955Z,17.86
2023-06-04T09:33:50.006Z,17.93
2023-06-04T09:36:17.049Z,17.98
2023-06-04T09:38:44.022Z,18.03
2023-06-04T09:41:18.307Z,18.06
2023-06-04T09:43:45.040Z,18.09
2023-06-04T09:46:16.617Z,18.11
2023-06-04T09:48:44.583Z,18.15
2023-06-04T09:51:13.025Z,18.16
2023-06-04T09:53:40.191Z,18.17
2023-06-04T09:56:07.649Z,18.23
2023-06-04T09:58:35.204Z,18.33
2023-06-04T10:01:04.725Z,18.37
2023-06-04T10:03:34.086Z,18.41
2023-06-04T10:06:03.290Z,18.43
2023-06-04T10:08:31.372Z,18.47
2023-06-04T10:11:02.719Z,18.52
2023-06-04T10:13:32.403Z,18.57
2023-06-04T10:15:59.858Z,18.59
2023-06-04T10:18:29.700Z,18.66
2023-06-04T10:20:57.153Z,18.68
2023-06-04T10:23:24.848Z,18.72
2023-06-04T10:25:53.584Z,18.72
2023-06-04T10:28:21.620Z,18.80
2023-06-04T10:30:51.499Z,18.83
2023-06-04T10:33:21.029Z,18.89
2023-06-04T10:35:47.873Z,18.93
2023-06-04T10:38:17.382Z,18.98
2023-06-04T10:40:44.508Z,18.98
2023-06-04T10:43:17.102Z,19.02
2023-06-04T10:45:43.761Z,19.07
2023-06-04T10:48:13.384Z,19.10
2023-06-04T10:50:53.334Z,19.20
2023-06-04T10:53:21.036Z,19.23
2023-06-04T10:55:49.264Z,19.22
2023-06-04T10:58:16.921Z,19.27
2023-06-04T11:00:50.130Z,19.31
2023-06-04T11:03:16.994Z,19.32
2023-06-04T11:05:45.613Z,19.38
2023-06-04T11:08:14.330Z,19.42
2023-06-04T11:10:46.944Z,19.44
2023-06-04T11:13:13.587Z,19.49
2023-06-04T11:15:42.755Z,19.51
2023-06-04T11:18:14.583Z,19.52
2023-06-04T11:20:41.125Z,19.54
2023-06-04T11:23:07.570Z,19.57
2023-06-04T11:25:34.249Z,19.67
2023-06-04T11:28:02.697Z,19.72
2023-06-04T11:30:29.580Z,19.74
2023-06-04T11:33:03.963Z,19.74
2023-06-04T11:35:30.646Z,19.76
2023-06-04T11:37:58.296Z,19.77
2023-06-04T11:40:25.308Z,19.76
2023-06-04T11:42:51.838Z,19.73
2023-06-04T11:45:21.639Z,19.76
2023-06-04T11:47:49.441Z,19.79
2023-06-04T11:50:16.423Z,19.86
2023-06-04T11:52:43.712Z,19.88
2023-06-04T11:55:11.892Z,19.89
2023-06-04T11:57:39.818Z,19.94
2023-06-04T12:00:10.394Z,19.95
2023-06-04T12:02:50.927Z,19.97
2023-06-04T12:05:21.108Z,20.00
2023-06-04T12:07:51.707Z,20.06
2023-06-04T12:10:19.860Z,20.12
2023-06-04T12:12:46.942Z,20.13
2023-06-04T12:15:20.332Z,20.19
2023-06-04T12:17:51.649Z,20.17
2023-06-04T12:20:18.614Z,20.18
2023-06-04T12:22:46.924Z,20.21
2023-06-04T12:25:13.787Z,20.23
2023-06-04T12:27:48.980Z,20.22
2023-06-04T12:30:16.935Z,20.24
2023-06-04T12:32:43.505Z,20.28
2023-06-04T12:35:10.052Z,20.28
2023-06-04T12:37:36.528Z,20.34
2023-06-04T12:40:05.223Z,20.35
2023-06-04T12:42:32.500Z,20.38
2023-06-04T12:44:58.995Z,20.43
2023-06-04T12:47:25.568Z,20.47
2023-06-04T12:49:53.177Z,20.46
2023-06-04T12:52:19.669Z,20.45
2023-06-04T12:54:46.217Z,20.48
2023-06-04T12:57:12.880Z,20.47
2023-06-04T12:59:39.301Z,20.49
2023-06-04T13:02:06.754Z,20.49
2023-06-04T13:04:33.274Z,20.59
2023-06-04T13:07:02.650Z,20.63
2023-06-04T13:09:29.955Z,20.63
2023-06-04T13:11:56.592Z,20.62
2023-06-04T13:14:23.047Z,20.63
2023-06-04T13:16:50.159Z,20.65
2023-06-04T13:19:16.702Z,20.71
2023-06-04T13:21:43.163Z,20.71
2023-06-04T13:24:11.900Z,20.73
2023-06-04T13:26:39.999Z,20.79
2023-06-04T13:29:06.580Z,20.84
2023-06-04T13:31:33.106Z,20.87
2023-06-04T13:34:00.348Z,20.86
2023-06-04T13:36:28.949Z,20.89
2023-06-04T13:38:56.051Z,20.92
2023-06-04T13:41:22.498Z,20.96
2023-06-04T13:43:49.002Z,20.97
2023-06-04T13:46:15.498Z,20.95
2023-06-04T13:48:41.909Z,20.93
2023-06-04T13:51:08.605Z,20.90
2023-06-04T13:53:35.418Z,20.89
2023-06-04T13:56:02.021Z,20.88
2023-06-04T13:58:28.447Z,20.87
2023-06-04T14:00:55.307Z,20.91
2023-06-04T14:03:21.958Z,20.90
2023-06-04T14:05:48.554Z,20.91
2023-06-04T14:08:15.206Z,20.90
2023-06-04T14:10:44.584Z,20.93
2023-06-04T14:13:11.155Z,20.90
2023-06-04T14:15:37.884Z,20.86
2023-06-04T14:18:05.351Z,20.86
2023-06-04T14:20:31.939Z,20.85
2023-06-04T14:22:58.643Z,20.84
2023-06-04T14:25:25.283Z,20.86
2023-06-04T14:27:52.030Z,20.79
2023-06-04T14:30:18.480Z,20.75
2023-06-04T14:32:44.951Z,20.72
2023-06-04T14:35:11.420Z,20.75
2023-06-04T14:37:37.819Z,20.74
2023-06-04T14:40:04.612Z,20.71
2023-06-04T14:42:31.019Z,20.70
2023-06-04T14:44:57.467Z,20.67
2023-06-04T14:47:24.054Z,20.65
2023-06-04T14:49:50.529Z,20.57
2023-06-04T14:52:17.344Z,20.59
2023-06-04T14:54:43.756Z,20.57
2023-06-04T14:57:10.240Z,20.56
2023-06-04T14:59:37.935Z,20.63
2023-06-04T15:02:04.655Z,20.68
2023-06-04T15:04:31.114Z,20.72
2023-06-04T15:06:57.574Z,20.68
2023-06-04T15:09:24.043Z,20.60
2023-06-04T15:11:50.481Z,20.55
2023-06-04T15:14:16.940Z,20.57
2023-06-04T15:16:43.369Z,20.56
2023-06-04T15:19:10.826Z,20.59
2023-06-04T15:21:37.420Z,20.59
2023-06-04T15:24:04.084Z,20.56
2023-06-04T15:26:30.947Z,20.53
2023-06-04T15:28:57.586Z,20.55
2023-06-04T15:31:24.403Z,20.56
2023-06-04T15:33:51.087Z,20.52
2023-06-04T15:36:17.634Z,20.49
2023-06-04T15:38:44.060Z,20.47
2023-06-04T15:41:10.713Z,20.46
2023-06-04T15:43:37.206Z,20.41
2023-06-04T15:46:03.687Z,20.40
2023-06-04T15:48:31.575Z,20.40
2023-06-04T15:50:58.039Z,20.37
2023-06-04T15:53:24.600Z,20.33
2023-06-04T15:55:51.372Z,20.31
2023-06-04T15:58:17.988Z,20.32
2023-06-04T16:00:44.415Z,20.30
2023-06-04T16:03:11.104Z,20.29
2023-06-04T16:05:37.525Z,20.22
2023-06-04T16:08:04.687Z,20.20
2023-06-04T16:10:31.168Z,20.20
2023-06-04T16:12:57.614Z,20.17
2023-06-04T16:15:24.129Z,20.13
2023-06-04T16:17:50.669Z,20.12
2023-06-04T16:20:17.452Z,20.09
2023-06-04T16:22:43.927Z,20.05
2023-06-04T16:25:10.731Z,20.02
2023-06-04T16:27:37.284Z,20.01
2023-06-04T16:30:05.830Z,19.98
2023-06-04T16:32:32.589Z,19.96
2023-06-04T16:35:00.562Z,19.93
2023-06-04T16:37:27.518Z,19.96
2023-06-04T16:39:54.030Z,19.93
2023-06-04T16:42:20.443Z,19.90
2023-06-04T16:44:47.218Z,19.86
2023-06-04T16:47:14.180Z,19.82
2023-06-04T16:49:40.657Z,19.83
2023-06-04T16:52:08.365Z,19.83
2023-06-04T16:54:35.019Z,19.83
2023-06-04T16:57:01.626Z,19.85
2023-06-04T16:59:31.038Z,19.82
2023-06-04T17:01:58.316Z,19.80
2023-06-04T17:04:24.872Z,19.77
2023-06-04T17:07:01.760Z,19.74
2023-06-04T17:09:43.616Z,19.73
2023-06-04T17:12:10.147Z,19.68
2023-06-04T17:14:36.596Z,19.66
2023-06-04T17:17:03.476Z,19.64
2023-06-04T17:19:32.653Z,19.59
2023-06-04T17:22:00.339Z,19.55
2023-06-04T17:24:36.178Z,19.54
2023-06-04T17:27:02.648Z,19.50
2023-06-04T17:29:29.082Z,19.49
2023-06-04T17:31:55.840Z,19.45
2023-06-04T17:34:22.274Z,19.42
2023-06-04T17:36:48.786Z,19.38
2023-06-04T17:39:15.225Z,19.34
2023-06-04T17:41:41.665Z,19.31
2023-06-04T17:44:08.083Z,19.29
2023-06-04T17:46:34.592Z,19.29
2023-06-04T17:49:29.083Z,19.27
2023-06-04T17:51:55.639Z,19.25
2023-06-04T17:54:22.192Z,19.23
2023-06-04T17:56:48.618Z,19.18
2023-06-04T17:59:15.219Z,19.14
2023-06-04T18:01:41.733Z,19.07
2023-06-04T18:04:08.162Z,19.06
2023-06-04T18:06:34.594Z,19.03
2023-06-04T18:09:01.179Z,19.03
2023-06-04T18:11:27.934Z,19.02
2023-06-04T18:13:54.533Z,19.01
2023-06-04T18:16:21.089Z,18.98
2023-06-04T18:18:47.570Z,18.97
2023-06-04T18:21:14.143Z,18.91
2023-06-04T18:23:41.731Z,18.84
2023-06-04T18:26:08.402Z,18.80
2023-06-04T18:28:34.991Z,18.78
2023-06-04T18:31:01.456Z,18.73
2023-06-04T18:33:28.224Z,18.72
2023-06-04T18:35:54.664Z,18.69
2023-06-04T18:38:21.075Z,18.65
2023-06-04T18:40:47.554Z,18.62
2023-06-04T18:43:14.094Z,18.58
2023-06-04T18:45:40.595Z,18.50
2023-06-04T18:48:07.877Z,18.46
2023-06-04T18:50:37.274Z,18.38
2023-06-04T18:53:06.119Z,18.32
2023-06-04T18:55:32.606Z,18.24
2023-06-04T18:57:59.064Z,18.21
2023-06-04T19:00:25.767Z,18.13
2023-06-04T19:02:53.927Z,18.10
2023-06-04T19:05:20.485Z,18.09
2023-06-04T19:07:47.020Z,18.05
2023-06-04T19:10:15.163Z,18.04
2023-06-04T19:12:43.416Z,17.99
2023-06-04T19:15:10.175Z,17.93
2023-06-04T19:17:36.762Z,17.91
2023-06-04T19:20:03.594Z,17.87
2023-06-04T19:22:30.110Z,17.82
2023-06-04T19:24:56.782Z,17.79
2023-06-04T19:27:23.204Z,17.73
2023-06-04T19:29:49.646Z,17.64
2023-06-04T19:32:16.038Z,17.62
2023-06-04T19:34:42.925Z,17.54
2023-06-04T19:37:09.474Z,17.47
2023-06-04T19:39:35.927Z,17.41
2023-06-04T19:42:02.394Z,17.36
2023-06-04T19:44:28.826Z,17.34
2023-06-04T19:46:55.344Z,17.27
2023-06-04T19:49:21.905Z,17.23
2023-06-04T19:51:48.767Z,17.19
2023-06-04T19:54:15.235Z,17.15
2023-06-04T19:56:42.673Z,17.08
2023-06-04T19:59:09.205Z,17.06
2023-06-04T20:01:36.187Z,16.96
2023-06-04T20:04:02.656Z,16.95
2023-06-04T20:06:29.435Z,16.93
2023-06-04T20:08:55.948Z,16.93
2023-06-04T20:11:23.205Z,16.90
2023-06-04T20:13:50.256Z,16.86
2023-06-04T20:16:16.829Z,16.72
2023-06-04T20:18:43.294Z,16.72
2023-06-04T20:21:09.734Z,16.57
2023-06-04T20:23:36.642Z,16.57
2023-06-04T20:26:03.109Z,16.52
2023-06-04T20:28:31.449Z,16.49
2023-06-04T20:30:57.993Z,16.44
2023-06-04T20:33:26.574Z,16.35
2023-06-04T20:35:53.045Z,16.34
2023-06-04T20:38:19.444Z,16.30
2023-06-04T20:40:45.884Z,16.22
2023-06-04T20:43:15.231Z,16.19
2023-06-04T20:45:41.672Z,16.14
2023-06-04T20:48:08.155Z,16.14
2023-06-04T20:50:34.646Z,16.13
2023-06-04T20:53:01.098Z,16.12
2023-06-04T20:55:27.555Z,16.11
2023-06-04T20:57:53.971Z,16.09
2023-06-04T21:00:20.649Z,16.00
2023-06-04T21:02:47.217Z,15.94
2023-06-04T21:05:13.746Z,15.89
2023-06-04T21:07:40.428Z,15.84
2023-06-04T21:10:07.168Z,15.81
2023-06-04T21:12:33.606Z,15.78
2023-06-04T21:15:00.035Z,15.76
2023-06-04T21:17:26.505Z,15.73
2023-06-04T21:19:53.145Z,15.71
2023-06-04T21:22:19.576Z,15.67
2023-06-04T21:24:47.086Z,15.63
2023-06-04T21:27:13.754Z,15.59
2023-06-04T21:29:40.194Z,15.54
2023-06-04T21:32:06.677Z,15.54
2023-06-04T21:34:33.190Z,15.55
2023-06-04T21:36:59.610Z,15.50
2023-06-04T21:39:26.127Z,15.49
2023-06-04T21:41:52.678Z,15.42
2023-06-04T21:44:19.100Z,15.33
2023-06-04T21:46:46.102Z,15.31
2023-06-04T21:49:12.910Z,15.29
2023-06-04T21:51:41.255Z,15.24
2023-06-04T21:54:09.879Z,15.20
2023-06-04T21:56:37.594Z,15.17
2023-06-04T21:59:04.042Z,15.16
2023-06-04T22:01:30.639Z,15.09
2023-06-04T22:03:57.165Z,15.09
2023-06-04T22:06:24.318Z,15.03
2023-06-04T22:08:50.890Z,15.04
2023-06-04T22:11:18.429Z,15.00
2023-06-04T22:13:44.888Z,14.94
2023-06-04T22:16:11.381Z,14.92
2023-06-04T22:18:52.295Z,14.88
2023-06-04T22:21:20.583Z,14.82
2023-06-04T22:23:47.074Z,14.75
2023-06-04T22:26:21.212Z,14.68
2023-06-04T22:28:55.257Z,14.65
2023-06-04T22:31:21.740Z,14.59
2023-06-04T22:33:48.236Z,14.58
2023-06-04T22:36:14.679Z,14.59
2023-06-04T22:38:41.067Z,14.50
2023-06-04T22:41:07.813Z,14.45
2023-06-04T22:43:34.487Z,14.43
2023-06-04T22:46:01.141Z,14.38
2023-06-04T22:48:27.618Z,14.38
2023-06-04T22:50:58.293Z,14.33
2023-06-04T22:53:24.802Z,14.30
2023-06-04T22:55:51.317Z,14.32
2023-06-04T22:58:17.870Z,14.29
2023-06-04T23:00:49.969Z,14.25
2023-06-04T23:03:17.499Z,14.22
2023-06-04T23:05:44.036Z,14.23
2023-06-04T23:08:10.476Z,14.20
2023-06-04T23:10:36.918Z,14.17
2023-06-04T23:13:03.333Z,14.14
2023-06-04T23:15:29.779Z,14.15
2023-06-04T23:17:56.248Z,14.10
2023-06-04T23:20:22.702Z,14.10
2023-06-04T23:22:49.192Z,14.08
2023-06-04T23:25:16.473Z,14.00
2023-06-04T23:27:42.891Z,13.99
2023-06-04T23:30:09.952Z,13.98
2023-06-04T23:32:36.562Z,13.96
2023-06-04T23:35:03.073Z,13.88
2023-06-04T23:37:29.562Z,13.86
2023-06-04T23:39:55.985Z,13.83
2023-06-04T23:42:22.402Z,13.72
2023-06-04T23:44:48.838Z,13.73
2023-06-04T23:47:15.398Z,13.72
2023-06-04T23:49:41.880Z,13.65
2023-06-04T23:52:08.343Z,13.70
2023-06-04T23:54:34.778Z,13.68
2023-06-04T23:57:01.308Z,13.64
2023-06-04T23:59:27.759Z,13.63
